Time;durP1;ratioP1;P1;durP2;ratioP2;P2;SDS_P1;SDS_P2;PMS_P1;PMS_P2;Temp;Humidity;BMP_temperature;BMP_pressure;BME280_temperature;BME280_humidity;BME280_pressure;Samples;Min_cycle;Max_cycle;Signal;HPM_P1;HPM_P2
2022/10/27 00:02:30;;;;;;;4.25;2.50;;;;;;;8.80;100.00;100742.31;10449920;28;20433;-87
2022/10/27 00:07:35;;;;;;;4.03;2.35;;;;;;;8.72;100.00;100751.06;10447100;28;20041;-86
2022/10/27 00:12:38;;;;;;;4.72;2.45;;;;;;;8.66;100.00;100760.31;10443840;28;20046;-84
2022/10/27 00:17:40;;;;;;;3.22;2.08;;;;;;;8.60;100.00;100764.94;10459447;28;20418;-83
2022/10/27 00:22:42;;;;;;;3.63;2.22;;;;;;;8.59;100.00;100768.75;10476941;28;20392;-84
2022/10/27 00:27:44;;;;;;;3.95;2.13;;;;;;;8.56;100.00;100761.09;10463860;28;20045;-83
2022/10/27 00:32:46;;;;;;;4.63;2.10;;;;;;;8.55;100.00;100759.44;10443450;28;20042;-76
2022/10/27 00:37:48;;;;;;;4.38;2.17;;;;;;;8.53;100.00;100767.09;10440452;28;20049;-75
2022/10/27 00:42:51;;;;;;;3.10;2.08;;;;;;;8.50;100.00;100762.13;10441354;28;20046;-75
2022/10/27 00:47:53;;;;;;;4.40;2.13;;;;;;;8.49;100.00;100768.69;10443255;28;20412;-75
2022/10/27 00:52:57;;;;;;;3.60;2.42;;;;;;;8.45;100.00;100767.56;10440351;28;20041;-76
2022/10/27 00:58:05;;;;;;;2.10;1.55;;;;;;;8.42;100.00;100771.66;10425893;28;20049;-76
2022/10/27 01:03:10;;;;;;;1.90;1.45;;;;;;;8.41;100.00;100778.22;10426450;28;20041;-77
2022/10/27 01:08:13;;;;;;;2.42;1.48;;;;;;;8.44;100.00;100779.59;10450770;28;20427;-76
2022/10/27 01:13:16;;;;;;;2.78;1.70;;;;;;;8.46;100.00;100782.88;10473837;28;20036;-74
2022/10/27 01:18:34;;;;;;;2.08;1.08;;;;;;;8.43;100.00;100788.88;10461774;28;20491;-76
2022/10/27 01:23:42;;;;;;;;;;;;;;;8.46;100.00;100782.88;10446387;28;20049;-75
2022/10/27 01:28:59;;;;;;;2.08;1.50;;;;;;;8.45;100.00;100782.06;10454274;28;19927;-74
2022/10/27 01:34:18;;;;;;;2.40;1.77;;;;;;;8.46;100.00;100785.63;10460008;28;20424;-75
2022/10/27 01:39:35;;;;;;;3.83;1.83;;;;;;;8.51;100.00;100785.69;10452157;28;20064;-75
2022/10/27 01:44:43;;;;;;;3.10;1.92;;;;;;;8.58;100.00;100790.91;10445367;28;20041;-75
2022/10/27 01:49:45;;;;;;;3.17;1.80;;;;;;;8.57;100.00;100784.63;10453809;28;20046;-75
2022/10/27 01:54:48;;;;;;;2.47;1.65;;;;;;;8.57;100.00;100784.63;10421318;28;20049;-75
2022/10/27 01:59:59;;;;;;;4.78;1.90;;;;;;;8.51;100.00;100791.16;10465933;28;20060;-75
2022/10/27 02:05:09;;;;;;;4.85;1.88;;;;;;;8.57;100.00;100789.25;10458991;28;20033;-75
2022/10/27 02:10:40;;;;;;;1.30;1.05;;;;;;;8.57;100.00;100790.09;10447071;28;20049;-75
2022/10/27 02:15:46;;;;;;;2.38;1.30;;;;;;;8.55;100.00;100789.53;10445455;28;20049;-75
2022/10/27 02:20:50;;;;;;;2.20;1.10;;;;;;;8.53;100.00;100791.72;10446467;28;20041;-75
2022/10/27 02:26:32;;;;;;;1.38;1.02;;;;;;;8.54;100.00;100803.47;10447228;28;20041;-74
2022/10/27 02:31:36;;;;;;;1.67;1.27;;;;;;;8.50;100.00;100796.84;10445479;28;20042;-74
2022/10/27 02:36:39;;;;;;;1.95;1.17;;;;;;;8.50;100.00;100803.16;10446304;28;20216;-75
2022/10/27 02:41:41;;;;;;;2.33;1.50;;;;;;;8.50;100.00;100811.34;10455839;28;20037;-74
2022/10/27 02:46:43;;;;;;;2.60;1.10;;;;;;;8.52;100.00;100803.72;10467795;28;20056;-75
2022/10/27 02:51:45;;;;;;;1.15;0.90;;;;;;;8.52;100.00;100817.41;10452878;28;20033;-75
2022/10/27 02:56:47;;;;;;;1.63;1.10;;;;;;;8.54;100.00;100815.22;10450117;28;20041;-74
2022/10/27 03:01:49;;;;;;;2.15;1.17;;;;;;;8.54;100.00;100823.44;10467740;28;20041;-75
2022/10/27 03:06:51;;;;;;;1.50;1.02;;;;;;;8.58;100.00;100831.94;10449341;28;20519;-75
2022/10/27 03:11:54;;;;;;;2.28;1.02;;;;;;;8.59;100.00;100834.41;10457934;28;20030;-75
2022/10/27 03:16:56;;;;;;;1.25;0.85;;;;;;;8.57;100.00;100839.31;10459158;28;20049;-76
2022/10/27 03:21:58;;;;;;;1.83;1.08;;;;;;;8.60;100.00;100827.03;10476166;28;20045;-75
2022/10/27 03:27:00;;;;;;;1.23;0.88;;;;;;;8.61;100.00;100839.59;10474795;28;20037;-75
2022/10/27 03:32:03;;;;;;;2.97;0.95;;;;;;;8.64;100.00;100850.00;10458325;28;20080;-75
2022/10/27 03:37:05;;;;;;;1.50;1.13;;;;;;;8.62;100.00;100838.53;10464518;28;20045;-75
2022/10/27 03:42:07;;;;;;;2.42;1.10;;;;;;;8.59;100.00;100848.09;10478230;28;20053;-75
2022/10/27 03:47:09;;;;;;;2.90;1.00;;;;;;;8.61;100.00;100854.09;10471414;28;20040;-75
2022/10/27 03:52:12;;;;;;;4.30;1.58;;;;;;;8.61;100.00;100856.84;10449838;28;20118;-75
2022/10/27 03:57:14;;;;;;;2.42;1.35;;;;;;;8.56;100.00;100856.81;10443524;28;20041;-75
2022/10/27 04:02:16;;;;;;;2.30;1.48;;;;;;;8.57;100.00;100860.38;10484844;28;20036;-77
2022/10/27 04:07:19;;;;;;;3.25;1.65;;;;;;;8.57;100.00;100861.19;10444050;28;20041;-75
2022/10/27 04:12:21;;;;;;;2.95;1.55;;;;;;;8.57;100.00;100869.41;10444334;28;20049;-74
2022/10/27 04:17:23;;;;;;;3.55;1.27;;;;;;;8.55;100.00;100874.31;10440974;28;20056;-74
2022/10/27 04:22:25;;;;;;;2.33;1.33;;;;;;;8.62;100.00;100882.28;10437840;28;20048;-75
2022/10/27 04:27:28;;;;;;;3.45;1.40;;;;;;;8.63;100.00;100886.66;10443564;28;20420;-75
2022/10/27 04:32:30;;;;;;;2.80;1.45;;;;;;;8.60;100.00;100881.72;10443141;28;20042;-75
2022/10/27 04:37:33;;;;;;;3.97;1.63;;;;;;;8.62;100.00;100885.03;10443556;28;20052;-75
2022/10/27 04:42:35;;;;;;;3.15;1.38;;;;;;;8.62;100.00;100893.22;10450915;28;20492;-75
2022/10/27 04:47:37;;;;;;;5.68;2.50;;;;;;;8.58;100.00;100897.59;10451736;28;20416;-75
2022/10/27 04:52:40;;;;;;;2.78;1.67;;;;;;;8.56;100.00;100900.59;10468502;28;20063;-74
2022/10/27 04:57:42;;;;;;;3.78;1.63;;;;;;;8.52;100.00;100899.47;10462964;28;20040;-74
2022/10/27 05:02:44;;;;;;;8.27;1.83;;;;;;;8.48;100.00;100909.25;10457773;28;20044;-74
2022/10/27 05:07:59;;;;;;;3.58;1.48;;;;;;;8.44;100.00;100913.59;10471652;28;20045;-74
2022/10/27 05:13:02;;;;;;;2.90;1.70;;;;;;;8.44;100.00;100919.06;10473472;28;20044;-74
2022/10/27 05:18:04;;;;;;;9.15;2.75;;;;;;;8.43;100.00;100920.97;10468092;28;20519;-74
2022/10/27 05:23:06;;;;;;;6.43;2.15;;;;;;;8.46;100.00;100930.56;10408899;28;20046;-74
2022/10/27 05:28:10;;;;;;;3.10;2.03;;;;;;;8.40;100.00;100932.44;10448466;28;20123;-75
2022/10/27 05:33:12;;;;;;;4.95;2.10;;;;;;;8.35;100.00;100932.41;10447616;28;20412;-75
2022/10/27 05:38:14;;;;;;;4.38;2.00;;;;;;;8.33;100.00;100939.16;10447791;28;20045;-74
2022/10/27 05:43:16;;;;;;;4.18;2.00;;;;;;;8.33;100.00;100937.28;10447905;28;20048;-75
2022/10/27 05:48:18;;;;;;;5.72;2.40;;;;;;;8.36;100.00;100952.38;10447427;28;20416;-74
2022/10/27 05:53:21;;;;;;;4.25;2.50;;;;;;;8.36;100.00;100963.31;10448623;28;20038;-75
2022/10/27 05:58:23;;;;;;;4.55;2.75;;;;;;;8.34;100.00;100965.47;10448653;28;20057;-74
2022/10/27 06:03:25;;;;;;;5.07;2.15;;;;;;;8.35;100.00;100978.06;10447583;28;20420;-74
2022/10/27 06:08:27;;;;;;;5.57;2.50;;;;;;;8.35;100.00;100975.31;10448288;28;20046;-75
2022/10/27 06:13:29;;;;;;;4.97;2.35;;;;;;;8.34;100.00;100979.16;10444973;28;20041;-75
2022/10/27 06:18:32;;;;;;;4.20;2.45;;;;;;;8.36;100.00;100980.53;10445477;28;20415;-74
2022/10/27 06:23:34;;;;;;;4.40;2.50;;;;;;;8.40;100.00;100991.78;10447368;28;20041;-74
2022/10/27 06:28:36;;;;;;;6.22;2.25;;;;;;;8.42;100.00;101000.53;10445720;28;20049;-75
2022/10/27 06:33:38;;;;;;;7.63;2.83;;;;;;;8.44;100.00;100999.19;10446906;28;20408;-75
2022/10/27 06:38:40;;;;;;;6.22;2.55;;;;;;;8.50;100.00;101012.91;10446643;28;20362;-75
2022/10/27 06:43:42;;;;;;;5.53;2.60;;;;;;;8.62;100.00;101019.06;10446472;28;20045;-75
2022/10/27 06:48:44;;;;;;;5.72;2.63;;;;;;;8.60;100.00;101023.97;10446843;28;20535;-74
2022/10/27 06:53:47;;;;;;;4.15;1.92;;;;;;;8.60;100.00;101029.44;10446067;28;20049;-75
2022/10/27 06:58:49;;;;;;;5.95;2.38;;;;;;;8.55;100.00;101032.97;10445037;28;20071;-74
2022/10/27 07:03:51;;;;;;;5.40;2.42;;;;;;;8.54;100.00;101042.25;10444819;28;20041;-74
2022/10/27 07:08:54;;;;;;;4.82;2.30;;;;;;;8.55;100.00;101040.34;10445193;28;20038;-74
2022/10/27 07:13:56;;;;;;;3.00;1.85;;;;;;;8.51;100.00;101047.41;10442326;28;20037;-75
2022/10/27 07:18:58;;;;;;;3.08;1.95;;;;;;;8.46;100.00;101056.38;10444157;28;20539;-74
2022/10/27 07:24:00;;;;;;;4.20;2.13;;;;;;;8.42;100.00;101068.91;10436904;28;20041;-74
2022/10/27 07:29:03;;;;;;;3.83;2.22;;;;;;;8.41;100.00;101067.25;10437307;28;20048;-74
2022/10/27 07:34:05;;;;;;;4.55;2.17;;;;;;;8.48;100.00;101078.81;10443792;28;20045;-81
2022/10/27 07:39:07;;;;;;;4.43;1.73;;;;;;;8.56;100.00;101067.44;10444952;28;20049;-74
2022/10/27 07:44:09;;;;;;;2.95;1.98;;;;;;;8.61;100.00;101078.41;10444384;28;20507;-75
2022/10/27 07:49:11;;;;;;;3.25;1.95;;;;;;;8.64;100.00;101080.63;10455853;28;20048;-75
2022/10/27 07:54:13;;;;;;;4.13;2.28;;;;;;;8.68;100.00;101080.97;10444554;28;20060;-75
2022/10/27 07:59:15;;;;;;;3.35;1.90;;;;;;;8.68;100.00;101076.31;10443039;28;20041;-75
2022/10/27 08:04:17;;;;;;;3.00;1.70;;;;;;;8.75;100.00;101079.66;10442335;28;20056;-75
2022/10/27 08:09:21;;;;;;;3.13;1.85;;;;;;;8.81;100.00;101087.91;10442540;28;20045;-74
2022/10/27 08:14:23;;;;;;;4.97;1.73;;;;;;;8.80;100.00;101094.47;10448614;28;20033;-74
2022/10/27 08:19:25;;;;;;;3.88;1.80;;;;;;;8.80;100.00;101099.94;10452188;28;20053;-74
2022/10/27 08:24:27;;;;;;;4.00;2.00;;;;;;;8.77;100.00;101104.03;10451829;28;20045;-74
2022/10/27 08:29:29;;;;;;;3.15;1.80;;;;;;;8.79;100.00;101104.59;10444691;28;20045;-74
2022/10/27 08:34:32;;;;;;;3.20;1.90;;;;;;;8.83;100.00;101110.38;10441110;28;20049;-74
2022/10/27 08:39:35;;;;;;;3.40;1.83;;;;;;;8.82;100.00;101109.53;10403906;28;20538;-74
2022/10/27 08:44:45;;;;;;;3.33;1.80;;;;;;;8.84;100.00;101106.56;10426333;28;20029;-75
2022/10/27 08:49:50;;;;;;;3.10;1.90;;;;;;;8.88;100.00;101118.66;10423332;28;20045;-74
2022/10/27 08:54:56;;;;;;;2.20;1.50;;;;;;;8.92;100.00;101112.41;10410067;28;20416;-74
2022/10/27 08:59:58;;;;;;;2.13;1.55;;;;;;;8.90;100.00;101122.78;10441734;28;20419;-74
2022/10/27 09:05:21;;;;;;;13.90;3.55;;;;;;;8.94;100.00;101123.91;10451037;28;20251;-74
2022/10/27 09:10:50;;;;;;;3.67;1.50;;;;;;;9.17;100.00;101130.97;10448966;28;20037;-74
2022/10/27 09:15:55;;;;;;;3.72;1.65;;;;;;;9.21;100.00;101136.78;10422624;28;20049;-76
2022/10/27 09:20:58;;;;;;;1.80;1.50;;;;;;;9.24;100.00;101145.28;10425194;28;20530;-73
2022/10/27 09:26:00;;;;;;;2.92;1.35;;;;;;;9.27;100.00;101139.28;10448012;28;20041;-84
2022/10/27 09:31:03;;;;;;;2.38;1.50;;;;;;;9.28;100.00;101146.41;10447990;28;20061;-88
2022/10/27 09:36:13;;;;;;;1.70;1.25;;;;;;;9.33;100.00;101149.19;10397197;28;20034;-88
2022/10/27 09:41:16;;;;;;;5.53;1.63;;;;;;;9.30;100.00;101155.19;10447942;28;20052;-88
2022/10/27 09:46:23;;;;;;;1.10;0.90;;;;;;;9.27;100.00;101163.94;10447983;28;20128;-88
2022/10/27 09:51:37;;;;;;;2.42;1.17;;;;;;;9.19;100.00;101158.91;10447371;28;20037;-87
2022/10/27 09:56:39;;;;;;;2.03;1.10;;;;;;;9.17;100.00;101168.47;10488884;28;20044;-91
2022/10/27 10:01:42;;;;;;;1.30;0.90;;;;;;;9.16;100.00;101164.91;10446818;28;20045;-86
2022/10/27 10:06:51;;;;;;;1.35;1.00;;;;;;;9.16;100.00;101164.91;10448615;28;20045;-85
2022/10/27 10:12:19;;;;;;;0.90;0.82;;;;;;;9.13;100.00;101168.16;10446786;28;20037;-86
2022/10/27 10:17:22;;;;;;;;;;;;;;;9.11;100.00;101173.09;10446776;28;20440;-86
2022/10/27 10:22:30;;;;;;;2.28;0.90;;;;;;;9.04;100.00;101167.81;10405521;28;20295;-85
2022/10/27 10:27:33;;;;;;;1.38;1.20;;;;;;;8.92;100.00;101172.63;10445102;28;20052;-86
2022/10/27 10:32:36;;;;;;;1.30;1.20;;;;;;;9.04;100.00;101177.94;10445714;28;20042;-86
2022/10/27 10:37:45;;;;;;;1.02;0.80;;;;;;;9.06;100.00;101184.00;10445083;28;20045;-86
2022/10/27 10:43:13;;;;;;;0.68;0.55;;;;;;;9.11;100.00;101185.94;10443545;28;20120;-85
2022/10/27 10:48:27;;;;;;;1.67;0.82;;;;;;;9.13;100.00;101190.06;10445189;28;20048;-88
2022/10/27 10:53:33;;;;;;;1.17;0.70;;;;;;;9.13;99.17;101192.81;10428318;28;20045;-87
2022/10/27 10:58:35;;;;;;;0.90;0.70;;;;;;;9.01;98.24;101192.94;10444633;28;20045;-87
2022/10/27 11:03:44;;;;;;;0.68;0.50;;;;;;;8.79;97.77;101191.34;10484146;28;20053;-86
2022/10/27 11:08:56;;;;;;;0.60;0.50;;;;;;;8.65;97.52;101202.66;10424405;28;20523;-86
2022/10/27 11:14:03;;;;;;;3.45;0.73;;;;;;;8.55;97.31;101207.19;10444310;28;20044;-86
2022/10/27 11:19:06;;;;;;;0.60;0.45;;;;;;;8.43;96.86;101208.13;10444164;28;20065;-83
2022/10/27 11:24:28;;;;;;;2.00;0.80;;;;;;;8.28;96.92;101215.25;10427541;28;20535;-87
2022/10/27 11:29:41;;;;;;;0.57;0.50;;;;;;;8.20;96.96;101215.69;10444629;28;20048;-87
2022/10/27 11:34:55;;;;;;;0.85;0.60;;;;;;;8.11;97.18;101212.56;10444785;28;20075;-84
2022/10/27 11:40:22;;;;;;;0.50;0.50;;;;;;;8.13;97.72;101211.22;10444450;28;20037;-84
2022/10/27 11:45:26;;;;;;;0.47;0.45;;;;;;;8.16;97.21;101227.13;10427934;28;20037;-85
2022/10/27 11:50:38;;;;;;;1.13;0.90;;;;;;;8.16;97.43;101221.69;10442208;28;20045;-88
2022/10/27 11:55:57;;;;;;;1.80;0.82;;;;;;;8.13;97.20;101221.31;10441667;28;20045;-88
2022/10/27 12:01:05;;;;;;;1.00;0.80;;;;;;;8.04;96.99;101225.56;10410684;28;20075;-88
2022/10/27 12:06:07;;;;;;;;;;;;;;;7.94;96.93;101226.22;10445924;28;20538;-88
2022/10/27 12:11:27;;;;;;;1.90;1.10;;;;;;;7.88;96.53;101229.97;10439388;28;19980;-88
2022/10/27 12:16:35;;;;;;;5.47;1.05;;;;;;;7.79;97.26;101228.72;10448054;28;20048;-88
2022/10/27 12:21:45;;;;;;;;;;;;;;;7.75;96.85;101224.81;10438629;28;20511;-89
2022/10/27 12:27:00;;;;;;;1.05;0.77;;;;;;;7.68;97.34;101219.53;10443584;28;19921;-89
2022/10/27 12:32:10;;;;;;;1.42;1.02;;;;;;;7.62;97.50;101225.16;10442312;28;20046;-89
2022/10/27 12:37:34;;;;;;;1.48;0.80;;;;;;;7.53;98.72;101222.84;10438042;28;20049;-87
2022/10/27 12:42:55;;;;;;;1.60;0.77;;;;;;;7.51;98.44;101221.44;10424287;28;20038;-87
2022/10/27 12:48:07;;;;;;;1.88;1.17;;;;;;;7.48;98.56;101232.84;10433363;28;20053;-88
2022/10/27 12:53:28;;;;;;;4.63;1.10;;;;;;;7.43;99.00;101228.09;10404135;28;20416;-87
2022/10/27 12:59:00;;;;;;;1.17;0.98;;;;;;;7.44;99.33;101237.94;10438313;28;20040;-87
2022/10/27 13:05:06;;;;;;;1.52;1.00;;;;;;;7.44;99.45;101256.25;10443750;28;20488;-88
2022/10/27 13:10:22;;;;;;;2.00;1.00;;;;;;;7.34;99.45;101258.78;10433231;28;20049;-85
2022/10/27 13:15:40;;;;;;;1.05;0.88;;;;;;;7.27;99.77;101261.66;10442128;28;20049;-82
2022/10/27 13:20:51;;;;;;;0.80;0.80;;;;;;;7.27;100.00;101261.66;10427108;28;20038;-89
2022/10/27 13:25:58;;;;;;;1.83;1.05;;;;;;;7.29;100.00;101265.00;10445739;28;20281;-88
2022/10/27 13:31:14;;;;;;;1.88;1.30;;;;;;;7.19;100.00;101268.34;10438389;28;20566;-83
2022/10/27 13:36:21;;;;;;;1.83;1.45;;;;;;;7.24;100.00;101270.34;10437587;28;20673;-91
2022/10/27 13:41:45;;;;;;;1.57;1.30;;;;;;;7.28;100.00;101273.41;10438279;28;20037;-94
2022/10/27 13:47:03;;;;;;;1.27;1.17;;;;;;;7.19;100.00;101259.34;10464646;28;20041;-85
2022/10/27 13:52:14;;;;;;;2.30;1.23;;;;;;;7.15;100.00;101261.72;10446807;28;20041;-83
2022/10/27 13:57:34;;;;;;;3.47;1.50;;;;;;;7.12;100.00;101261.38;10442737;28;20501;-91
2022/10/27 14:02:52;;;;;;;3.20;1.50;;;;;;;7.13;100.00;101263.03;10428399;28;20034;-91
2022/10/27 14:07:54;;;;;;;2.60;1.27;;;;;;;7.13;100.00;101271.22;10427672;28;20030;-84
2022/10/27 14:12:57;;;;;;;2.75;1.30;;;;;;;7.12;100.00;101275.88;10445640;28;20041;-83
2022/10/27 14:17:59;;;;;;;2.13;1.35;;;;;;;7.13;100.00;101272.06;10442123;28;20541;-83
2022/10/27 14:23:12;;;;;;;4.75;1.50;;;;;;;7.11;100.00;101262.44;10418221;28;20054;-75
2022/10/27 14:28:21;;;;;;;1.88;1.10;;;;;;;7.15;100.00;101259.00;10455825;28;20052;-76
2022/10/27 14:33:25;;;;;;;2.67;1.40;;;;;;;7.18;100.00;101255.78;10439163;28;20416;-75
2022/10/27 14:38:27;;;;;;;3.28;1.80;;;;;;;7.20;100.00;101258.25;10425857;28;20045;-74
2022/10/27 14:43:39;;;;;;;1.83;1.40;;;;;;;7.19;100.00;101267.53;10412307;28;20052;-75
2022/10/27 14:48:41;;;;;;;3.35;1.60;;;;;;;7.11;100.00;101262.44;10449489;28;20049;-75
2022/10/27 14:53:47;;;;;;;2.55;1.45;;;;;;;7.12;100.00;101259.50;10453898;28;20037;-76
2022/10/27 14:58:57;;;;;;;2.35;1.45;;;;;;;7.14;100.00;101270.16;10454881;28;20037;-75
2022/10/27 15:04:14;;;;;;;3.05;1.40;;;;;;;7.08;100.00;101265.66;10476185;28;20049;-76
2022/10/27 15:09:28;;;;;;;3.60;2.05;;;;;;;7.11;100.00;101265.16;10445002;28;20403;-76
2022/10/27 15:14:32;;;;;;;3.28;2.08;;;;;;;7.15;100.00;101271.81;10442459;28;20518;-76
2022/10/27 15:19:34;;;;;;;3.13;1.80;;;;;;;7.17;100.00;101270.50;10441046;28;20053;-76
2022/10/27 15:24:36;;;;;;;3.30;1.90;;;;;;;7.20;100.00;101269.19;10463755;28;20041;-75
2022/10/27 15:29:41;;;;;;;23.52;6.35;;;;;;;7.40;100.00;101264.09;10437451;28;20037;-76
2022/10/27 15:34:43;;;;;;;10.60;4.53;;;;;;;7.56;100.00;101260.56;10458913;28;20057;-76
2022/10/27 15:39:45;;;;;;;10.90;3.40;;;;;;;7.78;100.00;101251.66;10450449;28;20048;-73
2022/10/27 15:44:47;;;;;;;2.75;1.45;;;;;;;7.75;100.00;101247.50;10457375;28;20033;-76
2022/10/27 15:49:50;;;;;;;5.93;2.88;;;;;;;7.57;100.00;101240.38;10441479;28;20033;-75
2022/10/27 15:54:53;;;;;;;3.90;1.92;;;;;;;7.43;100.00;101246.38;10447059;28;20041;-75
2022/10/27 16:00:16;;;;;;;5.20;2.13;;;;;;;7.48;100.00;101250.06;10455573;28;20499;-76
2022/10/27 16:05:30;;;;;;;11.00;3.30;;;;;;;7.60;100.00;101236.31;10440880;28;20499;-75
2022/10/27 16:10:32;;;;;;;6.32;2.33;;;;;;;7.62;100.00;101245.09;10453541;28;20057;-75
2022/10/27 16:15:35;;;;;;;9.43;3.15;;;;;;;7.61;100.00;101248.91;10443985;28;20048;-75
2022/10/27 16:20:42;;;;;;;6.28;2.25;;;;;;;7.55;100.00;101256.19;10458230;28;20048;-74
2022/10/27 16:25:45;;;;;;;8.02;2.47;;;;;;;7.43;100.00;101244.50;10469121;28;20503;-75
2022/10/27 16:30:47;;;;;;;6.93;2.08;;;;;;;7.39;100.00;101264.34;10441923;28;20044;-76
2022/10/27 16:35:50;;;;;;;3.45;2.30;;;;;;;7.41;100.00;101252.09;10448407;28;20045;-75
2022/10/27 16:40:52;;;;;;;3.45;1.88;;;;;;;7.37;100.00;101259.13;10453328;28;20256;-76
2022/10/27 16:45:54;;;;;;;2.53;2.03;;;;;;;7.34;100.00;101256.91;10473743;28;20057;-75
2022/10/27 16:50:56;;;;;;;4.00;2.17;;;;;;;7.31;100.00;101257.38;10456309;28;20037;-77
2022/10/27 16:56:03;;;;;;;3.30;2.10;;;;;;;7.31;100.00;101246.47;10447108;28;20037;-74
2022/10/27 17:01:08;;;;;;;3.90;2.35;;;;;;;7.36;100.00;101252.00;10416901;28;20415;-74
2022/10/27 17:06:10;;;;;;;2.63;2.05;;;;;;;7.29;100.00;101248.63;10448621;28;20502;-74
2022/10/27 17:11:17;;;;;;;4.00;2.08;;;;;;;7.31;100.00;101241.00;10442167;28;20227;-75
2022/10/27 17:16:19;;;;;;;3.78;2.58;;;;;;;7.39;100.00;101235.13;10439411;28;20072;-75
2022/10/27 17:21:21;;;;;;;2.70;1.60;;;;;;;7.49;100.00;101232.59;10475190;28;20041;-75
2022/10/27 17:26:25;;;;;;;3.13;1.95;;;;;;;7.44;100.00;101216.09;10448771;28;20420;-74
2022/10/27 17:31:27;;;;;;;3.67;1.80;;;;;;;7.44;100.00;101218.84;10448039;28;20044;-78
2022/10/27 17:36:29;;;;;;;2.83;1.92;;;;;;;7.38;100.00;101222.56;10437949;28;20503;-76
2022/10/27 17:41:32;;;;;;;2.67;1.83;;;;;;;7.46;100.00;101222.19;10438217;28;20411;-75
2022/10/27 17:46:34;;;;;;;3.55;1.98;;;;;;;7.45;100.00;101209.56;10439061;28;20046;-79
2022/10/27 17:51:36;;;;;;;1.95;1.60;;;;;;;7.47;100.00;101210.19;10447489;28;20100;-75
2022/10/27 17:56:39;;;;;;;2.50;2.30;;;;;;;7.49;100.00;101199.00;10444608;28;20080;-75
2022/10/27 18:01:41;;;;;;;2.78;2.20;;;;;;;7.43;100.00;101202.69;10449888;28;20042;-91
2022/10/27 18:06:43;;;;;;;3.70;2.38;;;;;;;7.39;100.00;101199.66;10449755;28;20041;-93
2022/10/27 18:11:46;;;;;;;4.15;2.10;;;;;;;7.40;100.00;101204.03;10448308;28;20040;-92
2022/10/27 18:16:48;;;;;;;5.28;2.67;;;;;;;7.48;100.00;101197.34;10444678;28;20046;-85
2022/10/27 18:21:51;;;;;;;2.70;1.98;;;;;;;7.49;100.00;101194.38;10452964;28;20049;-85
2022/10/27 18:26:53;;;;;;;2.15;1.80;;;;;;;7.45;100.00;101193.19;10447892;28;20073;-87
2022/10/27 18:31:55;;;;;;;5.03;2.22;;;;;;;7.46;100.00;101183.94;10465088;28;20045;-86
2022/10/27 18:36:58;;;;;;;2.83;1.90;;;;;;;7.51;100.00;101177.75;10443377;28;20056;-88
2022/10/27 18:42:00;;;;;;;3.05;1.98;;;;;;;7.47;100.00;101162.94;10444422;28;20037;-78
2022/10/27 18:47:03;;;;;;;4.30;2.08;;;;;;;7.41;100.00;101159.25;10455847;28;20049;-79
2022/10/27 18:52:05;;;;;;;4.72;1.60;;;;;;;7.45;100.00;101156.88;10443803;28;20041;-78
2022/10/27 18:57:07;;;;;;;2.45;1.65;;;;;;;7.46;100.00;101155.78;10445426;28;20045;-85
2022/10/27 19:02:10;;;;;;;2.63;1.67;;;;;;;7.43;100.00;101162.56;10450937;28;20546;-80
2022/10/27 19:07:12;;;;;;;3.35;1.75;;;;;;;7.41;100.00;101163.91;10430574;28;20046;-87
2022/10/27 19:12:14;;;;;;;2.83;1.63;;;;;;;7.41;100.00;101164.72;10453042;28;20423;-85
2022/10/27 19:17:16;;;;;;;4.72;2.17;;;;;;;7.38;100.00;101169.88;10453368;28;20400;-89
2022/10/27 19:22:20;;;;;;;3.15;2.05;;;;;;;7.39;100.00;101160.59;10463300;28;20033;-93
2022/10/27 19:27:22;;;;;;;4.57;2.35;;;;;;;7.41;100.00;101161.16;10452369;28;20052;-82
2022/10/27 19:32:24;;;;;;;4.53;2.60;;;;;;;7.38;100.00;101159.75;10452303;28;20037;-82
2022/10/27 19:37:26;;;;;;;4.75;2.53;;;;;;;7.38;100.00;101162.50;10466793;28;20045;-88
2022/10/27 19:42:28;;;;;;;5.45;3.33;;;;;;;7.41;100.00;101167.47;10452000;28;20042;-82
2022/10/27 19:47:31;;;;;;;5.07;2.83;;;;;;;7.44;100.00;101157.94;10448269;28;20051;-85
2022/10/27 19:52:34;;;;;;;5.95;2.95;;;;;;;7.42;100.00;101158.19;10431689;28;20048;-82
2022/10/27 19:57:36;;;;;;;6.68;2.78;;;;;;;7.42;100.00;101154.63;10443282;28;20132;-78
2022/10/27 20:02:40;;;;;;;5.78;2.50;;;;;;;7.44;100.00;101147.84;10442672;28;20064;-78
2022/10/27 20:07:43;;;;;;;6.20;3.08;;;;;;;7.45;100.00;101141.31;10438690;28;20526;-81
2022/10/27 20:12:45;;;;;;;6.05;2.92;;;;;;;7.45;100.00;101144.03;10429970;28;20033;-87
2022/10/27 20:17:48;;;;;;;4.72;2.75;;;;;;;7.48;100.00;101145.47;10447395;28;20115;-82
2022/10/27 20:22:51;;;;;;;5.22;2.90;;;;;;;7.46;100.00;101144.88;10453543;28;20040;-83
2022/10/27 20:27:53;;;;;;;6.65;2.90;;;;;;;7.47;100.00;101135.63;10444420;28;20038;-82
2022/10/27 20:32:55;;;;;;;4.18;2.40;;;;;;;7.49;100.00;101131.56;10429887;28;20468;-74
2022/10/27 20:37:57;;;;;;;4.45;2.05;;;;;;;7.52;100.00;101122.88;10437053;28;20052;-74
2022/10/27 20:43:00;;;;;;;3.92;2.50;;;;;;;7.50;100.00;101122.28;10440355;28;20044;-74
2022/10/27 20:48:02;;;;;;;5.00;2.50;;;;;;;7.51;100.00;101120.41;10438844;28;20069;-73
2022/10/27 20:53:05;;;;;;;5.85;2.53;;;;;;;7.54;100.00;101107.06;10441380;28;20295;-73
2022/10/27 20:58:07;;;;;;;4.20;2.42;;;;;;;7.56;100.00;101099.44;10444688;28;20064;-74
2022/10/27 21:03:09;;;;;;;4.63;2.38;;;;;;;7.53;100.00;101097.22;10434444;28;20064;-72
2022/10/27 21:08:11;;;;;;;4.70;2.28;;;;;;;7.51;100.00;101090.34;10440625;28;20045;-73
2022/10/27 21:13:14;;;;;;;5.60;2.30;;;;;;;7.51;100.00;101076.69;10443086;28;20042;-72
2022/10/27 21:18:16;;;;;;;8.32;2.65;;;;;;;7.54;100.00;101074.28;10441893;28;20053;-73
2022/10/27 21:23:18;;;;;;;5.15;2.55;;;;;;;7.53;100.00;101063.63;10446671;28;20052;-73
2022/10/27 21:28:20;;;;;;;4.05;2.28;;;;;;;7.58;100.00;101063.69;10471405;28;20057;-73
2022/10/27 21:33:26;;;;;;;5.13;2.67;;;;;;;7.59;100.00;101059.06;10449042;28;20048;-72
2022/10/27 21:38:36;;;;;;;4.55;2.67;;;;;;;7.62;100.00;101055.81;10466518;28;20053;-73
2022/10/27 21:43:40;;;;;;;4.38;2.85;;;;;;;7.66;100.00;101051.53;10448161;28;20385;-73
2022/10/27 21:48:43;;;;;;;3.22;2.53;;;;;;;7.63;100.00;101041.91;10451374;28;20064;-73
2022/10/27 21:53:45;;;;;;;4.38;2.67;;;;;;;7.66;100.00;101041.41;10448952;28;20053;-73
2022/10/27 21:58:47;;;;;;;3.95;2.50;;;;;;;7.67;100.00;101025.84;10447504;28;20046;-73
2022/10/27 22:03:49;;;;;;;3.80;2.60;;;;;;;7.66;100.00;101024.22;10444844;28;20048;-73
2022/10/27 22:08:51;;;;;;;3.30;2.22;;;;;;;7.68;100.00;101027.50;10446646;28;20049;-73
2022/10/27 22:13:54;;;;;;;6.10;2.25;;;;;;;7.67;100.00;101021.22;10434395;28;20052;-73
2022/10/27 22:19:00;;;;;;;3.03;2.17;;;;;;;7.70;100.00;101025.34;10460285;28;20054;-73
2022/10/27 22:24:03;;;;;;;3.47;1.90;;;;;;;7.70;100.00;101028.09;10419203;28;20065;-71
2022/10/27 22:29:05;;;;;;;2.17;1.63;;;;;;;7.69;100.00;101029.16;10457467;28;20049;-73
2022/10/27 22:34:08;;;;;;;3.55;2.00;;;;;;;7.69;100.00;101021.78;10443119;28;20045;-73
2022/10/27 22:39:12;;;;;;;2.40;1.65;;;;;;;7.73;100.00;101011.19;10449977;28;20045;-73
2022/10/27 22:44:14;;;;;;;2.53;1.52;;;;;;;7.74;100.00;101004.63;10435634;28;20033;-73
2022/10/27 22:49:16;;;;;;;1.88;1.70;;;;;;;7.74;100.00;101000.00;10445257;28;20057;-72
2022/10/27 22:54:18;;;;;;;2.00;1.20;;;;;;;7.77;100.00;101004.13;10443199;28;20499;-72
2022/10/27 22:59:20;;;;;;;1.90;1.38;;;;;;;7.78;100.00;101003.03;10443529;28;20340;-77
2022/10/27 23:04:22;;;;;;;2.33;1.23;;;;;;;7.83;100.00;101000.41;10442231;28;20052;-73
2022/10/27 23:09:25;;;;;;;1.65;1.30;;;;;;;7.86;100.00;100989.78;10440605;28;20443;-73
2022/10/27 23:14:27;;;;;;;2.80;1.25;;;;;;;7.91;100.00;100989.00;10443998;28;20042;-73
2022/10/27 23:19:29;;;;;;;2.35;1.10;;;;;;;7.95;100.00;100990.13;10426375;28;20331;-74
2022/10/27 23:24:31;;;;;;;1.10;1.05;;;;;;;7.99;100.00;100988.56;10443198;28;20037;-73
2022/10/27 23:29:33;;;;;;;1.20;1.10;;;;;;;8.03;100.00;100986.16;10444409;28;20045;-73